sensor_id;sensor_type;location;lat;lon;timestamp;P1;durP1;ratioP1;P2;durP2;ratioP2
69878;SDS011;57161;43.136;24.706;2024-03-25T00:01:37;4.18;;;2.65;;
69878;SDS011;57161;43.136;24.706;2024-03-25T00:04:03;4.63;;;2.90;;
69878;SDS011;57161;43.136;24.706;2024-03-25T00:06:28;4.70;;;3.30;;
69878;SDS011;57161;43.136;24.706;2024-03-25T00:08:58;6.13;;;3.35;;
69878;SDS011;57161;43.136;24.706;2024-03-25T00:11:24;5.43;;;3.83;;
69878;SDS011;57161;43.136;24.706;2024-03-25T00:13:49;6.07;;;4.10;;
69878;SDS011;57161;43.136;24.706;2024-03-25T00:16:15;9.35;;;4.70;;
69878;SDS011;57161;43.136;24.706;2024-03-25T00:18:41;12.52;;;4.88;;
69878;SDS011;57161;43.136;24.706;2024-03-25T00:21:07;11.13;;;5.38;;
69878;SDS011;57161;43.136;24.706;2024-03-25T00:23:32;7.93;;;4.97;;
69878;SDS011;57161;43.136;24.706;2024-03-25T00:25:58;9.00;;;5.90;;
69878;SDS011;57161;43.136;24.706;2024-03-25T00:28:23;8.85;;;4.60;;
69878;SDS011;57161;43.136;24.706;2024-03-25T00:30:49;10.63;;;4.05;;
69878;SDS011;57161;43.136;24.706;2024-03-25T00:33:14;4.15;;;2.80;;
69878;SDS011;57161;43.136;24.706;2024-03-25T00:35:41;3.00;;;1.80;;
69878;SDS011;57161;43.136;24.706;2024-03-25T00:38:08;6.60;;;4.13;;
69878;SDS011;57161;43.136;24.706;2024-03-25T00:40:33;41.75;;;19.02;;
69878;SDS011;57161;43.136;24.706;2024-03-25T00:42:59;34.17;;;16.38;;
69878;SDS011;57161;43.136;24.706;2024-03-25T00:45:25;8.27;;;4.95;;
69878;SDS011;57161;43.136;24.706;2024-03-25T00:47:55;9.57;;;5.97;;
69878;SDS011;57161;43.136;24.706;2024-03-25T00:50:21;3.92;;;2.83;;
69878;SDS011;57161;43.136;24.706;2024-03-25T00:52:47;5.80;;;3.30;;
69878;SDS011;57161;43.136;24.706;2024-03-25T00:55:12;6.32;;;4.85;;
69878;SDS011;57161;43.136;24.706;2024-03-25T00:57:39;3.38;;;2.30;;
69878;SDS011;57161;43.136;24.706;2024-03-25T01:00:05;2.10;;;1.60;;
69878;SDS011;57161;43.136;24.706;2024-03-25T01:02:31;4.63;;;2.80;;
69878;SDS011;57161;43.136;24.706;2024-03-25T01:04:57;5.22;;;3.47;;
69878;SDS011;57161;43.136;24.706;2024-03-25T01:07:24;3.88;;;2.30;;
69878;SDS011;57161;43.136;24.706;2024-03-25T01:09:50;3.97;;;2.90;;
69878;SDS011;57161;43.136;24.706;2024-03-25T01:12:15;5.00;;;3.30;;
69878;SDS011;57161;43.136;24.706;2024-03-25T01:14:41;4.10;;;1.60;;
69878;SDS011;57161;43.136;24.706;2024-03-25T01:17:07;2.20;;;1.88;;
69878;SDS011;57161;43.136;24.706;2024-03-25T01:19:32;4.20;;;1.50;;
69878;SDS011;57161;43.136;24.706;2024-03-25T01:21:58;4.45;;;3.05;;
69878;SDS011;57161;43.136;24.706;2024-03-25T01:24:24;5.18;;;3.70;;
69878;SDS011;57161;43.136;24.706;2024-03-25T01:26:50;3.58;;;1.75;;
69878;SDS011;57161;43.136;24.706;2024-03-25T01:29:16;3.20;;;1.63;;
69878;SDS011;57161;43.136;24.706;2024-03-25T01:31:42;1.77;;;1.50;;
69878;SDS011;57161;43.136;24.706;2024-03-25T01:34:07;1.55;;;1.45;;
69878;SDS011;57161;43.136;24.706;2024-03-25T01:36:33;2.70;;;1.80;;
69878;SDS011;57161;43.136;24.706;2024-03-25T01:39:00;1.63;;;1.52;;
69878;SDS011;57161;43.136;24.706;2024-03-25T01:41:25;3.85;;;2.72;;
69878;SDS011;57161;43.136;24.706;2024-03-25T01:43:51;2.78;;;2.10;;
69878;SDS011;57161;43.136;24.706;2024-03-25T01:46:17;3.60;;;2.22;;
69878;SDS011;57161;43.136;24.706;2024-03-25T01:48:44;3.30;;;2.20;;
69878;SDS011;57161;43.136;24.706;2024-03-25T01:51:11;3.17;;;2.33;;
69878;SDS011;57161;43.136;24.706;2024-03-25T01:53:39;2.97;;;2.00;;
69878;SDS011;57161;43.136;24.706;2024-03-25T01:56:05;5.38;;;1.90;;
69878;SDS011;57161;43.136;24.706;2024-03-25T01:58:31;5.15;;;2.30;;
69878;SDS011;57161;43.136;24.706;2024-03-25T02:00:56;4.95;;;3.42;;
69878;SDS011;57161;43.136;24.706;2024-03-25T02:03:26;4.75;;;1.90;;
69878;SDS011;57161;43.136;24.706;2024-03-25T02:05:55;1.33;;;1.05;;
69878;SDS011;57161;43.136;24.706;2024-03-25T02:08:27;1.10;;;1.00;;
69878;SDS011;57161;43.136;24.706;2024-03-25T02:10:54;2.45;;;1.52;;
69878;SDS011;57161;43.136;24.706;2024-03-25T02:13:20;1.48;;;0.93;;
69878;SDS011;57161;43.136;24.706;2024-03-25T02:15:46;3.22;;;1.90;;
69878;SDS011;57161;43.136;24.706;2024-03-25T02:18:16;4.85;;;2.53;;
69878;SDS011;57161;43.136;24.706;2024-03-25T02:20:42;2.47;;;1.52;;
69878;SDS011;57161;43.136;24.706;2024-03-25T02:23:11;1.63;;;1.27;;
69878;SDS011;57161;43.136;24.706;2024-03-25T02:25:38;3.53;;;2.40;;
69878;SDS011;57161;43.136;24.706;2024-03-25T02:28:04;3.30;;;2.13;;
69878;SDS011;57161;43.136;24.706;2024-03-25T02:30:30;6.18;;;3.30;;
69878;SDS011;57161;43.136;24.706;2024-03-25T02:32:55;4.43;;;3.10;;
69878;SDS011;57161;43.136;24.706;2024-03-25T02:35:21;5.90;;;3.90;;
69878;SDS011;57161;43.136;24.706;2024-03-25T02:37:50;7.07;;;3.92;;
69878;SDS011;57161;43.136;24.706;2024-03-25T02:40:17;6.72;;;4.20;;
69878;SDS011;57161;43.136;24.706;2024-03-25T02:42:44;6.75;;;4.13;;
69878;SDS011;57161;43.136;24.706;2024-03-25T02:45:10;6.55;;;4.20;;
69878;SDS011;57161;43.136;24.706;2024-03-25T02:47:35;6.40;;;3.90;;
69878;SDS011;57161;43.136;24.706;2024-03-25T02:50:01;6.63;;;3.42;;
69878;SDS011;57161;43.136;24.706;2024-03-25T02:52:27;4.93;;;3.30;;
69878;SDS011;57161;43.136;24.706;2024-03-25T02:54:52;6.75;;;3.95;;
69878;SDS011;57161;43.136;24.706;2024-03-25T02:57:19;7.38;;;4.10;;
69878;SDS011;57161;43.136;24.706;2024-03-25T02:59:45;5.88;;;3.55;;
69878;SDS011;57161;43.136;24.706;2024-03-25T03:02:10;6.90;;;4.10;;
69878;SDS011;57161;43.136;24.706;2024-03-25T03:04:36;6.78;;;4.18;;
69878;SDS011;57161;43.136;24.706;2024-03-25T03:07:01;7.05;;;4.70;;
69878;SDS011;57161;43.136;24.706;2024-03-25T03:09:27;6.45;;;4.38;;
69878;SDS011;57161;43.136;24.706;2024-03-25T03:11:53;7.38;;;4.13;;
69878;SDS011;57161;43.136;24.706;2024-03-25T03:14:18;6.72;;;4.28;;
69878;SDS011;57161;43.136;24.706;2024-03-25T03:16:44;6.82;;;4.20;;
69878;SDS011;57161;43.136;24.706;2024-03-25T03:19:09;6.13;;;4.05;;
69878;SDS011;57161;43.136;24.706;2024-03-25T03:21:35;7.63;;;4.75;;
69878;SDS011;57161;43.136;24.706;2024-03-25T03:24:01;7.65;;;5.28;;
69878;SDS011;57161;43.136;24.706;2024-03-25T03:26:27;8.05;;;5.07;;
69878;SDS011;57161;43.136;24.706;2024-03-25T03:28:53;7.72;;;4.78;;
69878;SDS011;57161;43.136;24.706;2024-03-25T03:31:19;6.97;;;4.95;;
69878;SDS011;57161;43.136;24.706;2024-03-25T03:33:46;9.23;;;5.07;;
69878;SDS011;57161;43.136;24.706;2024-03-25T03:36:16;7.82;;;5.43;;
69878;SDS011;57161;43.136;24.706;2024-03-25T03:38:42;9.02;;;4.80;;
69878;SDS011;57161;43.136;24.706;2024-03-25T03:41:08;8.48;;;5.93;;
69878;SDS011;57161;43.136;24.706;2024-03-25T03:43:34;8.98;;;5.55;;
69878;SDS011;57161;43.136;24.706;2024-03-25T03:45:59;10.50;;;5.32;;
69878;SDS011;57161;43.136;24.706;2024-03-25T03:48:25;9.40;;;5.75;;
69878;SDS011;57161;43.136;24.706;2024-03-25T03:50:51;7.70;;;4.80;;
69878;SDS011;57161;43.136;24.706;2024-03-25T03:53:16;7.15;;;4.95;;
69878;SDS011;57161;43.136;24.706;2024-03-25T03:55:42;8.02;;;5.22;;
69878;SDS011;57161;43.136;24.706;2024-03-25T03:58:17;8.00;;;5.38;;
69878;SDS011;57161;43.136;24.706;2024-03-25T04:00:43;6.80;;;4.82;;
69878;SDS011;57161;43.136;24.706;2024-03-25T04:03:08;7.65;;;5.18;;
69878;SDS011;57161;43.136;24.706;2024-03-25T04:05:34;7.68;;;5.53;;
69878;SDS011;57161;43.136;24.706;2024-03-25T04:08:00;8.48;;;5.22;;
69878;SDS011;57161;43.136;24.706;2024-03-25T04:10:26;9.23;;;6.20;;
69878;SDS011;57161;43.136;24.706;2024-03-25T04:12:52;8.98;;;5.47;;
69878;SDS011;57161;43.136;24.706;2024-03-25T04:15:17;8.25;;;5.30;;
69878;SDS011;57161;43.136;24.706;2024-03-25T04:17:44;7.80;;;5.00;;
69878;SDS011;57161;43.136;24.706;2024-03-25T04:20:14;7.60;;;5.38;;
69878;SDS011;57161;43.136;24.706;2024-03-25T04:22:44;8.73;;;5.35;;
69878;SDS011;57161;43.136;24.706;2024-03-25T04:25:11;8.77;;;5.47;;
69878;SDS011;57161;43.136;24.706;2024-03-25T04:27:46;7.57;;;4.93;;
69878;SDS011;57161;43.136;24.706;2024-03-25T04:30:12;7.50;;;5.32;;
69878;SDS011;57161;43.136;24.706;2024-03-25T04:32:38;7.72;;;5.40;;
69878;SDS011;57161;43.136;24.706;2024-03-25T04:35:07;8.45;;;5.65;;
69878;SDS011;57161;43.136;24.706;2024-03-25T04:37:33;7.57;;;5.20;;
69878;SDS011;57161;43.136;24.706;2024-03-25T04:39:59;10.00;;;5.22;;
69878;SDS011;57161;43.136;24.706;2024-03-25T04:42:25;8.40;;;6.05;;
69878;SDS011;57161;43.136;24.706;2024-03-25T04:44:51;8.80;;;5.70;;
69878;SDS011;57161;43.136;24.706;2024-03-25T04:47:17;11.10;;;6.35;;
69878;SDS011;57161;43.136;24.706;2024-03-25T04:49:43;9.70;;;6.60;;
69878;SDS011;57161;43.136;24.706;2024-03-25T04:52:10;9.48;;;6.10;;
69878;SDS011;57161;43.136;24.706;2024-03-25T04:54:38;10.85;;;6.93;;
69878;SDS011;57161;43.136;24.706;2024-03-25T04:57:04;13.52;;;7.07;;
69878;SDS011;57161;43.136;24.706;2024-03-25T04:59:31;10.27;;;6.57;;
69878;SDS011;57161;43.136;24.706;2024-03-25T05:01:57;9.18;;;6.00;;
69878;SDS011;57161;43.136;24.706;2024-03-25T05:04:22;13.27;;;8.00;;
69878;SDS011;57161;43.136;24.706;2024-03-25T05:06:49;11.80;;;8.00;;
69878;SDS011;57161;43.136;24.706;2024-03-25T05:09:15;11.35;;;7.70;;
69878;SDS011;57161;43.136;24.706;2024-03-25T05:11:41;11.57;;;7.05;;
69878;SDS011;57161;43.136;24.706;2024-03-25T05:14:07;12.05;;;6.88;;
69878;SDS011;57161;43.136;24.706;2024-03-25T05:16:32;13.02;;;7.95;;
69878;SDS011;57161;43.136;24.706;2024-03-25T05:18:58;12.10;;;7.57;;
69878;SDS011;57161;43.136;24.706;2024-03-25T05:21:23;13.63;;;7.40;;
69878;SDS011;57161;43.136;24.706;2024-03-25T05:23:49;12.95;;;7.57;;
69878;SDS011;57161;43.136;24.706;2024-03-25T05:26:14;11.68;;;7.28;;
69878;SDS011;57161;43.136;24.706;2024-03-25T05:28:40;11.82;;;7.80;;
69878;SDS011;57161;43.136;24.706;2024-03-25T05:31:09;11.20;;;7.72;;
69878;SDS011;57161;43.136;24.706;2024-03-25T05:33:35;13.50;;;7.57;;
69878;SDS011;57161;43.136;24.706;2024-03-25T05:36:00;27.02;;;14.32;;
69878;SDS011;57161;43.136;24.706;2024-03-25T05:38:27;15.55;;;9.25;;
69878;SDS011;57161;43.136;24.706;2024-03-25T05:40:53;14.85;;;9.23;;
69878;SDS011;57161;43.136;24.706;2024-03-25T05:43:19;13.38;;;8.65;;
69878;SDS011;57161;43.136;24.706;2024-03-25T05:45:52;13.18;;;7.63;;
69878;SDS011;57161;43.136;24.706;2024-03-25T05:48:18;15.48;;;9.23;;
69878;SDS011;57161;43.136;24.706;2024-03-25T05:50:44;13.65;;;8.60;;
69878;SDS011;57161;43.136;24.706;2024-03-25T05:53:10;12.82;;;8.57;;
69878;SDS011;57161;43.136;24.706;2024-03-25T05:55:35;13.45;;;8.35;;
69878;SDS011;57161;43.136;24.706;2024-03-25T05:58:01;18.05;;;9.45;;
69878;SDS011;57161;43.136;24.706;2024-03-25T06:00:28;13.60;;;8.52;;
69878;SDS011;57161;43.136;24.706;2024-03-25T06:02:53;12.60;;;8.15;;
69878;SDS011;57161;43.136;24.706;2024-03-25T06:05:19;10.63;;;7.63;;
69878;SDS011;57161;43.136;24.706;2024-03-25T06:07:45;14.98;;;8.95;;
69878;SDS011;57161;43.136;24.706;2024-03-25T06:10:10;15.65;;;8.70;;
69878;SDS011;57161;43.136;24.706;2024-03-25T06:12:36;13.23;;;8.32;;
69878;SDS011;57161;43.136;24.706;2024-03-25T06:15:01;14.90;;;9.50;;
69878;SDS011;57161;43.136;24.706;2024-03-25T06:17:27;14.38;;;9.23;;
69878;SDS011;57161;43.136;24.706;2024-03-25T06:19:52;14.55;;;8.55;;
69878;SDS011;57161;43.136;24.706;2024-03-25T06:22:18;12.63;;;8.07;;
69878;SDS011;57161;43.136;24.706;2024-03-25T06:24:43;15.40;;;9.30;;
69878;SDS011;57161;43.136;24.706;2024-03-25T06:27:09;13.80;;;8.52;;
69878;SDS011;57161;43.136;24.706;2024-03-25T06:29:35;12.57;;;8.20;;
69878;SDS011;57161;43.136;24.706;2024-03-25T06:32:01;12.90;;;8.27;;
69878;SDS011;57161;43.136;24.706;2024-03-25T06:34:44;16.05;;;9.52;;
69878;SDS011;57161;43.136;24.706;2024-03-25T06:37:10;16.55;;;10.32;;
69878;SDS011;57161;43.136;24.706;2024-03-25T06:39:35;15.38;;;9.75;;
69878;SDS011;57161;43.136;24.706;2024-03-25T06:42:01;13.50;;;8.88;;
69878;SDS011;57161;43.136;24.706;2024-03-25T06:44:27;14.45;;;9.02;;
69878;SDS011;57161;43.136;24.706;2024-03-25T06:46:52;15.25;;;8.82;;
69878;SDS011;57161;43.136;24.706;2024-03-25T06:49:18;13.98;;;8.35;;
69878;SDS011;57161;43.136;24.706;2024-03-25T06:51:44;16.60;;;8.60;;
69878;SDS011;57161;43.136;24.706;2024-03-25T06:54:09;12.00;;;8.15;;
69878;SDS011;57161;43.136;24.706;2024-03-25T06:56:35;20.83;;;9.23;;
69878;SDS011;57161;43.136;24.706;2024-03-25T06:59:00;22.30;;;12.38;;
69878;SDS011;57161;43.136;24.706;2024-03-25T07:01:26;22.40;;;13.60;;
69878;SDS011;57161;43.136;24.706;2024-03-25T07:03:51;18.73;;;13.07;;
69878;SDS011;57161;43.136;24.706;2024-03-25T07:06:18;12.98;;;9.02;;
69878;SDS011;57161;43.136;24.706;2024-03-25T07:08:44;13.13;;;8.60;;
69878;SDS011;57161;43.136;24.706;2024-03-25T07:11:09;12.20;;;8.23;;
69878;SDS011;57161;43.136;24.706;2024-03-25T07:13:35;13.25;;;8.60;;
69878;SDS011;57161;43.136;24.706;2024-03-25T07:16:01;12.95;;;8.45;;
69878;SDS011;57161;43.136;24.706;2024-03-25T07:18:26;17.50;;;8.23;;
69878;SDS011;57161;43.136;24.706;2024-03-25T07:20:51;12.82;;;8.50;;
69878;SDS011;57161;43.136;24.706;2024-03-25T07:23:17;14.98;;;8.70;;
69878;SDS011;57161;43.136;24.706;2024-03-25T07:25:42;12.20;;;8.38;;
69878;SDS011;57161;43.136;24.706;2024-03-25T07:28:09;17.25;;;10.65;;
69878;SDS011;57161;43.136;24.706;2024-03-25T07:30:34;14.05;;;9.02;;
69878;SDS011;57161;43.136;24.706;2024-03-25T07:32:59;16.50;;;9.55;;
69878;SDS011;57161;43.136;24.706;2024-03-25T07:35:25;16.25;;;9.63;;
69878;SDS011;57161;43.136;24.706;2024-03-25T07:37:51;12.98;;;9.13;;
69878;SDS011;57161;43.136;24.706;2024-03-25T07:40:20;15.38;;;10.55;;
69878;SDS011;57161;43.136;24.706;2024-03-25T07:42:47;19.60;;;10.47;;
69878;SDS011;57161;43.136;24.706;2024-03-25T07:45:14;22.75;;;11.15;;
69878;SDS011;57161;43.136;24.706;2024-03-25T07:47:40;15.95;;;9.98;;
69878;SDS011;57161;43.136;24.706;2024-03-25T07:50:05;13.77;;;8.70;;
69878;SDS011;57161;43.136;24.706;2024-03-25T07:52:32;19.38;;;11.20;;
69878;SDS011;57161;43.136;24.706;2024-03-25T07:54:57;29.58;;;14.57;;
69878;SDS011;57161;43.136;24.706;2024-03-25T07:57:23;17.80;;;9.27;;
69878;SDS011;57161;43.136;24.706;2024-03-25T07:59:48;19.88;;;10.98;;
69878;SDS011;57161;43.136;24.706;2024-03-25T08:02:14;47.38;;;22.58;;
69878;SDS011;57161;43.136;24.706;2024-03-25T08:04:40;20.27;;;11.82;;
69878;SDS011;57161;43.136;24.706;2024-03-25T08:07:06;25.20;;;12.80;;
69878;SDS011;57161;43.136;24.706;2024-03-25T08:09:32;26.38;;;13.13;;
69878;SDS011;57161;43.136;24.706;2024-03-25T08:11:57;16.73;;;10.93;;
69878;SDS011;57161;43.136;24.706;2024-03-25T08:14:23;21.85;;;12.32;;
69878;SDS011;57161;43.136;24.706;2024-03-25T08:16:49;17.67;;;11.30;;
69878;SDS011;57161;43.136;24.706;2024-03-25T08:19:14;16.50;;;10.43;;
69878;SDS011;57161;43.136;24.706;2024-03-25T08:21:40;23.95;;;14.40;;
69878;SDS011;57161;43.136;24.706;2024-03-25T08:24:05;19.10;;;12.02;;
69878;SDS011;57161;43.136;24.706;2024-03-25T08:26:31;24.38;;;13.60;;
69878;SDS011;57161;43.136;24.706;2024-03-25T08:28:57;22.30;;;12.48;;
69878;SDS011;57161;43.136;24.706;2024-03-25T08:31:22;24.83;;;13.27;;
69878;SDS011;57161;43.136;24.706;2024-03-25T08:33:48;17.55;;;10.65;;
69878;SDS011;57161;43.136;24.706;2024-03-25T08:36:13;25.23;;;13.30;;
69878;SDS011;57161;43.136;24.706;2024-03-25T08:38:39;21.83;;;12.32;;
69878;SDS011;57161;43.136;24.706;2024-03-25T08:41:04;16.40;;;10.30;;
69878;SDS011;57161;43.136;24.706;2024-03-25T08:43:30;16.83;;;11.02;;
69878;SDS011;57161;43.136;24.706;2024-03-25T08:45:55;43.65;;;22.55;;
69878;SDS011;57161;43.136;24.706;2024-03-25T08:48:22;34.13;;;19.33;;
69878;SDS011;57161;43.136;24.706;2024-03-25T08:50:48;14.65;;;10.27;;
69878;SDS011;57161;43.136;24.706;2024-03-25T08:53:13;22.98;;;14.02;;
69878;SDS011;57161;43.136;24.706;2024-03-25T08:55:43;16.73;;;11.23;;
69878;SDS011;57161;43.136;24.706;2024-03-25T08:58:10;15.25;;;10.23;;
69878;SDS011;57161;43.136;24.706;2024-03-25T09:00:35;16.98;;;9.65;;
69878;SDS011;57161;43.136;24.706;2024-03-25T09:03:00;15.93;;;10.57;;
69878;SDS011;57161;43.136;24.706;2024-03-25T09:05:26;15.60;;;10.52;;
69878;SDS011;57161;43.136;24.706;2024-03-25T09:07:51;14.13;;;8.38;;
69878;SDS011;57161;43.136;24.706;2024-03-25T09:10:20;12.18;;;8.90;;
69878;SDS011;57161;43.136;24.706;2024-03-25T09:13:04;14.93;;;9.93;;
69878;SDS011;57161;43.136;24.706;2024-03-25T09:15:30;14.00;;;9.48;;
69878;SDS011;57161;43.136;24.706;2024-03-25T09:17:55;13.82;;;8.82;;
69878;SDS011;57161;43.136;24.706;2024-03-25T09:20:21;11.80;;;8.30;;
69878;SDS011;57161;43.136;24.706;2024-03-25T09:22:47;9.70;;;7.13;;
69878;SDS011;57161;43.136;24.706;2024-03-25T09:25:15;11.77;;;8.20;;
69878;SDS011;57161;43.136;24.706;2024-03-25T09:27:45;12.75;;;8.43;;
69878;SDS011;57161;43.136;24.706;2024-03-25T09:30:11;11.63;;;8.20;;
69878;SDS011;57161;43.136;24.706;2024-03-25T09:32:37;14.80;;;9.23;;
69878;SDS011;57161;43.136;24.706;2024-03-25T09:35:02;15.70;;;10.57;;
69878;SDS011;57161;43.136;24.706;2024-03-25T09:37:28;11.27;;;8.23;;
69878;SDS011;57161;43.136;24.706;2024-03-25T09:39:54;11.88;;;8.10;;
69878;SDS011;57161;43.136;24.706;2024-03-25T09:42:25;13.02;;;6.63;;
69878;SDS011;57161;43.136;24.706;2024-03-25T09:44:53;13.40;;;8.38;;
69878;SDS011;57161;43.136;24.706;2024-03-25T09:47:20;13.60;;;8.25;;
69878;SDS011;57161;43.136;24.706;2024-03-25T09:49:46;10.60;;;7.95;;
69878;SDS011;57161;43.136;24.706;2024-03-25T09:52:12;16.00;;;9.77;;
69878;SDS011;57161;43.136;24.706;2024-03-25T09:54:38;15.35;;;9.68;;
69878;SDS011;57161;43.136;24.706;2024-03-25T09:57:04;17.95;;;10.68;;
69878;SDS011;57161;43.136;24.706;2024-03-25T09:59:30;19.20;;;11.70;;
69878;SDS011;57161;43.136;24.706;2024-03-25T10:01:56;28.30;;;15.45;;
69878;SDS011;57161;43.136;24.706;2024-03-25T10:04:24;18.55;;;11.25;;
69878;SDS011;57161;43.136;24.706;2024-03-25T10:06:50;20.77;;;12.75;;
69878;SDS011;57161;43.136;24.706;2024-03-25T10:09:19;16.33;;;10.93;;
69878;SDS011;57161;43.136;24.706;2024-03-25T10:11:48;15.70;;;9.85;;
69878;SDS011;57161;43.136;24.706;2024-03-25T10:14:15;18.00;;;11.90;;
69878;SDS011;57161;43.136;24.706;2024-03-25T10:16:48;12.30;;;8.50;;
69878;SDS011;57161;43.136;24.706;2024-03-25T10:19:14;14.07;;;9.73;;
69878;SDS011;57161;43.136;24.706;2024-03-25T10:21:40;15.63;;;8.52;;
69878;SDS011;57161;43.136;24.706;2024-03-25T10:24:05;13.35;;;9.23;;
69878;SDS011;57161;43.136;24.706;2024-03-25T10:26:32;20.23;;;11.88;;
69878;SDS011;57161;43.136;24.706;2024-03-25T10:29:03;12.80;;;7.93;;
69878;SDS011;57161;43.136;24.706;2024-03-25T10:31:31;11.27;;;6.03;;
69878;SDS011;57161;43.136;24.706;2024-03-25T10:33:57;8.43;;;6.35;;
69878;SDS011;57161;43.136;24.706;2024-03-25T10:36:24;12.82;;;8.48;;
69878;SDS011;57161;43.136;24.706;2024-03-25T10:38:52;12.98;;;7.97;;
69878;SDS011;57161;43.136;24.706;2024-03-25T10:41:20;14.23;;;8.68;;
69878;SDS011;57161;43.136;24.706;2024-03-25T10:43:46;13.63;;;7.45;;
69878;SDS011;57161;43.136;24.706;2024-03-25T10:46:17;9.05;;;5.90;;
69878;SDS011;57161;43.136;24.706;2024-03-25T10:51:13;8.85;;;5.20;;
69878;SDS011;57161;43.136;24.706;2024-03-25T10:53:39;12.63;;;6.95;;
69878;SDS011;57161;43.136;24.706;2024-03-25T10:56:06;10.23;;;6.43;;
69878;SDS011;57161;43.136;24.706;2024-03-25T10:58:33;9.25;;;7.10;;
69878;SDS011;57161;43.136;24.706;2024-03-25T11:00:59;9.48;;;6.38;;
69878;SDS011;57161;43.136;24.706;2024-03-25T11:03:26;7.05;;;4.80;;
69878;SDS011;57161;43.136;24.706;2024-03-25T11:05:53;7.53;;;5.60;;
69878;SDS011;57161;43.136;24.706;2024-03-25T11:08:19;7.80;;;5.68;;
69878;SDS011;57161;43.136;24.706;2024-03-25T11:10:45;6.78;;;4.72;;
69878;SDS011;57161;43.136;24.706;2024-03-25T11:13:14;12.02;;;8.02;;
69878;SDS011;57161;43.136;24.706;2024-03-25T11:15:47;5.68;;;3.95;;
69878;SDS011;57161;43.136;24.706;2024-03-25T11:18:17;4.85;;;3.70;;
69878;SDS011;57161;43.136;24.706;2024-03-25T11:20:59;6.95;;;4.07;;
69878;SDS011;57161;43.136;24.706;2024-03-25T11:23:38;15.05;;;3.88;;
69878;SDS011;57161;43.136;24.706;2024-03-25T11:26:16;8.60;;;5.03;;
69878;SDS011;57161;43.136;24.706;2024-03-25T11:28:49;3.85;;;3.05;;
69878;SDS011;57161;43.136;24.706;2024-03-25T11:31:16;7.50;;;5.07;;
69878;SDS011;57161;43.136;24.706;2024-03-25T11:33:42;5.93;;;3.03;;
69878;SDS011;57161;43.136;24.706;2024-03-25T11:36:07;9.98;;;6.10;;
69878;SDS011;57161;43.136;24.706;2024-03-25T11:38:34;6.70;;;3.70;;
69878;SDS011;57161;43.136;24.706;2024-03-25T11:41:00;5.05;;;3.40;;
69878;SDS011;57161;43.136;24.706;2024-03-25T11:43:26;4.93;;;3.55;;
69878;SDS011;57161;43.136;24.706;2024-03-25T11:45:51;6.68;;;4.10;;
69878;SDS011;57161;43.136;24.706;2024-03-25T11:48:19;6.38;;;3.50;;
69878;SDS011;57161;43.136;24.706;2024-03-25T11:50:45;4.20;;;3.25;;
69878;SDS011;57161;43.136;24.706;2024-03-25T11:53:15;4.45;;;3.13;;
69878;SDS011;57161;43.136;24.706;2024-03-25T11:55:41;3.90;;;3.05;;
69878;SDS011;57161;43.136;24.706;2024-03-25T11:58:10;9.27;;;4.57;;
69878;SDS011;57161;43.136;24.706;2024-03-25T12:00:42;3.00;;;2.20;;
69878;SDS011;57161;43.136;24.706;2024-03-25T12:03:14;4.35;;;2.58;;
69878;SDS011;57161;43.136;24.706;2024-03-25T12:05:40;5.70;;;3.90;;
69878;SDS011;57161;43.136;24.706;2024-03-25T12:08:09;3.72;;;2.80;;
69878;SDS011;57161;43.136;24.706;2024-03-25T12:10:36;5.65;;;2.78;;
69878;SDS011;57161;43.136;24.706;2024-03-25T12:13:21;5.05;;;2.60;;
69878;SDS011;57161;43.136;24.706;2024-03-25T12:15:47;3.58;;;2.72;;
69878;SDS011;57161;43.136;24.706;2024-03-25T12:18:13;6.63;;;3.33;;
69878;SDS011;57161;43.136;24.706;2024-03-25T12:20:40;4.93;;;2.90;;
69878;SDS011;57161;43.136;24.706;2024-03-25T12:23:06;5.40;;;2.47;;
69878;SDS011;57161;43.136;24.706;2024-03-25T12:25:32;5.65;;;2.40;;
69878;SDS011;57161;43.136;24.706;2024-03-25T12:27:58;5.43;;;2.90;;
69878;SDS011;57161;43.136;24.706;2024-03-25T12:30:23;4.95;;;3.13;;
69878;SDS011;57161;43.136;24.706;2024-03-25T12:32:50;3.60;;;2.88;;
69878;SDS011;57161;43.136;24.706;2024-03-25T12:35:16;4.50;;;2.75;;
69878;SDS011;57161;43.136;24.706;2024-03-25T12:37:43;3.17;;;2.45;;
69878;SDS011;57161;43.136;24.706;2024-03-25T12:40:10;4.18;;;3.20;;
69878;SDS011;57161;43.136;24.706;2024-03-25T12:42:38;11.02;;;3.90;;
69878;SDS011;57161;43.136;24.706;2024-03-25T12:45:07;5.60;;;3.50;;
69878;SDS011;57161;43.136;24.706;2024-03-25T12:47:33;6.43;;;3.45;;
69878;SDS011;57161;43.136;24.706;2024-03-25T12:49:59;5.72;;;3.90;;
69878;SDS011;57161;43.136;24.706;2024-03-25T12:52:24;6.40;;;3.08;;
69878;SDS011;57161;43.136;24.706;2024-03-25T12:54:50;4.38;;;3.13;;
69878;SDS011;57161;43.136;24.706;2024-03-25T12:57:16;4.25;;;2.67;;
69878;SDS011;57161;43.136;24.706;2024-03-25T12:59:41;3.20;;;2.53;;
69878;SDS011;57161;43.136;24.706;2024-03-25T13:02:09;4.13;;;2.63;;
69878;SDS011;57161;43.136;24.706;2024-03-25T13:04:36;4.47;;;2.72;;
69878;SDS011;57161;43.136;24.706;2024-03-25T13:07:02;3.33;;;2.30;;
69878;SDS011;57161;43.136;24.706;2024-03-25T13:09:28;4.40;;;2.80;;
69878;SDS011;57161;43.136;24.706;2024-03-25T13:11:55;3.88;;;2.80;;
69878;SDS011;57161;43.136;24.706;2024-03-25T13:14:24;5.03;;;3.40;;
69878;SDS011;57161;43.136;24.706;2024-03-25T13:16:50;3.50;;;2.50;;
69878;SDS011;57161;43.136;24.706;2024-03-25T13:19:17;6.47;;;3.05;;
69878;SDS011;57161;43.136;24.706;2024-03-25T13:21:42;7.65;;;2.85;;
69878;SDS011;57161;43.136;24.706;2024-03-25T13:24:09;4.57;;;2.30;;
69878;SDS011;57161;43.136;24.706;2024-03-25T13:26:34;6.28;;;2.50;;
69878;SDS011;57161;43.136;24.706;2024-03-25T13:28:59;2.50;;;2.05;;
69878;SDS011;57161;43.136;24.706;2024-03-25T13:31:25;4.22;;;2.70;;
69878;SDS011;57161;43.136;24.706;2024-03-25T13:33:51;10.85;;;4.60;;
69878;SDS011;57161;43.136;24.706;2024-03-25T13:36:17;6.50;;;2.97;;
69878;SDS011;57161;43.136;24.706;2024-03-25T13:38:43;3.88;;;2.88;;
69878;SDS011;57161;43.136;24.706;2024-03-25T13:41:09;3.55;;;2.83;;
69878;SDS011;57161;43.136;24.706;2024-03-25T13:43:34;4.30;;;3.17;;
69878;SDS011;57161;43.136;24.706;2024-03-25T13:46:00;4.70;;;3.05;;
69878;SDS011;57161;43.136;24.706;2024-03-25T13:48:25;6.63;;;3.22;;
69878;SDS011;57161;43.136;24.706;2024-03-25T13:50:53;7.80;;;2.92;;
69878;SDS011;57161;43.136;24.706;2024-03-25T13:53:19;2.90;;;2.55;;
69878;SDS011;57161;43.136;24.706;2024-03-25T13:55:44;6.38;;;2.97;;
69878;SDS011;57161;43.136;24.706;2024-03-25T13:58:10;5.68;;;3.35;;
69878;SDS011;57161;43.136;24.706;2024-03-25T14:00:35;5.90;;;3.67;;
69878;SDS011;57161;43.136;24.706;2024-03-25T14:03:01;26.25;;;14.57;;
69878;SDS011;57161;43.136;24.706;2024-03-25T14:05:27;18.67;;;10.07;;
69878;SDS011;57161;43.136;24.706;2024-03-25T14:07:52;33.80;;;20.77;;
69878;SDS011;57161;43.136;24.706;2024-03-25T14:10:18;9.20;;;4.70;;
69878;SDS011;57161;43.136;24.706;2024-03-25T14:12:43;7.93;;;6.13;;
69878;SDS011;57161;43.136;24.706;2024-03-25T14:15:09;7.72;;;5.43;;
69878;SDS011;57161;43.136;24.706;2024-03-25T14:17:35;3.70;;;3.25;;
69878;SDS011;57161;43.136;24.706;2024-03-25T14:20:00;7.05;;;3.60;;
69878;SDS011;57161;43.136;24.706;2024-03-25T14:22:26;5.65;;;3.78;;
69878;SDS011;57161;43.136;24.706;2024-03-25T14:24:52;3.95;;;2.60;;